Walesville, New York
Current Conditions -  °F | °C
As of 6:53 AM on Monday 22 Dec 2014 (Local Time) from KRME Reporting Station
Overcast Overcast  
Wind Chill: 22°   Ceiling: 2500
Heat Index: 29°   Visibility: 10mi
Dew Point: 23°   Wind: 7mph
Humidity: 78%   Direction: 90°E
Pressure: 30.32"   Gusts: NA
Location:  43.1203°N, 75.3249°W
Report Text: KRME 221153Z AUTO 09006KT 10SM OVC025 M02/M05 A3032 RMK AO2 SLP273 T10171050 11011 21017 55008
Loading
Personal Weather Stations






























Interactive Weather Map New forecast layout! Learn more

10-Day Weather Forecast

Advertisements
Track Severe Weather on mobile